Time;durP1;ratioP1;P1;durP2;ratioP2;P2;SDS_P1;SDS_P2;PMS_P1;PMS_P2;Temp;Humidity;BMP_temperature;BMP_pressure;BME280_temperature;BME280_humidity;BME280_pressure;Samples;Min_cycle;Max_cycle;Signal;HPM_P1;HPM_P2
2022/09/13 00:02:14;;;;;;;23.58;17.42;;;17.50;99.90;;;;;;5015210;28;20045;-93
2022/09/13 00:04:58;;;;;;;20.08;14.80;;;17.40;99.90;;;;;;5027614;28;20581;-93
2022/09/13 00:07:42;;;;;;;21.88;14.52;;;17.40;99.90;;;;;;5015000;28;20116;-93
2022/09/13 00:10:27;;;;;;;20.02;14.52;;;;;;;;;;5004768;28;20044;-92
2022/09/13 00:13:12;;;;;;;21.15;14.73;;;17.20;99.90;;;;;;5014577;28;20084;-94
2022/09/13 00:15:57;;;;;;;20.33;15.02;;;;;;;;;;5014467;28;20092;-92
2022/09/13 00:18:42;;;;;;;22.08;15.02;;;;;;;;;;5008313;28;20038;-92
2022/09/13 00:21:27;;;;;;;23.15;15.55;;;17.40;99.90;;;;;;5009794;28;20033;-92
2022/09/13 00:24:12;;;;;;;23.60;16.98;;;;;;;;;;5012957;28;20448;-92
2022/09/13 00:26:56;;;;;;;26.88;17.17;;;17.40;99.90;;;;;;5013919;28;20032;-90
2022/09/13 00:29:41;;;;;;;28.48;17.45;;;17.30;99.90;;;;;;5014563;28;20044;-90
2022/09/13 00:32:25;;;;;;;30.67;18.92;;;17.60;99.90;;;;;;5027402;28;20040;-90
2022/09/13 00:35:10;;;;;;;28.05;19.52;;;17.20;99.90;;;;;;5013713;28;20099;-89
2022/09/13 00:37:54;;;;;;;25.35;18.52;;;17.20;99.90;;;;;;5000865;28;20456;-88
2022/09/13 00:40:38;;;;;;;29.83;18.33;;;17.20;99.90;;;;;;5001856;28;20133;-88
2022/09/13 00:43:41;;;;;;;27.45;18.48;;;17.20;99.90;;;;;;5013886;28;20041;-88
2022/09/13 00:46:27;;;;;;;25.65;17.55;;;17.20;99.90;;;;;;5014145;28;20068;-88
2022/09/13 00:49:22;;;;;;;26.77;17.77;;;17.20;99.90;;;;;;5013451;28;20121;-88
2022/09/13 00:52:12;;;;;;;25.98;17.08;;;17.10;99.90;;;;;;5013187;28;20120;-88
2022/09/13 00:55:07;;;;;;;27.08;16.83;;;17.10;99.90;;;;;;5013208;28;20048;-88
2022/09/13 00:57:54;;;;;;;29.27;18.02;;;17.10;99.90;;;;;;5014047;28;20474;-88
2022/09/13 01:00:39;;;;;;;34.47;18.52;;;17.10;99.90;;;;;;5013552;28;20485;-88
2022/09/13 01:03:27;;;;;;;28.05;18.33;;;17.10;99.90;;;;;;5012868;28;20056;-89
2022/09/13 01:06:16;;;;;;;30.30;18.58;;;17.10;99.90;;;;;;5012845;28;20107;-89
2022/09/13 01:09:03;;;;;;;22.52;15.63;;;17.10;99.90;;;;;;5012919;28;20084;-88
2022/09/13 01:11:59;;;;;;;26.90;16.52;;;17.10;99.90;;;;;;5013624;28;20041;-88
2022/09/13 01:14:45;;;;;;;30.13;18.80;;;17.10;99.90;;;;;;5026467;28;20053;-88
2022/09/13 01:17:31;;;;;;;29.23;18.13;;;17.10;99.90;;;;;;5009213;28;20038;-87
2022/09/13 01:20:16;;;;;;;26.77;17.35;;;17.20;99.90;;;;;;5012694;28;20045;-89
2022/09/13 01:23:33;;;;;;;28.73;17.88;;;17.10;99.90;;;;;;5025603;28;20049;-88
2022/09/13 01:26:52;;;;;;;26.73;18.05;;;17.00;99.90;;;;;;5012522;28;20958;-88
2022/09/13 01:30:05;;;;;;;31.02;18.02;;;17.10;99.90;;;;;;5010804;28;20040;-87
2022/09/13 01:33:37;;;;;;;26.52;17.55;;;17.10;99.90;;;;;;5012844;28;20466;-88
2022/09/13 01:36:50;;;;;;;30.48;19.23;;;17.10;99.90;;;;;;5011782;28;20040;-86
2022/09/13 01:40:11;;;;;;;34.78;19.08;;;17.10;99.90;;;;;;5018862;28;20087;-87
2022/09/13 01:43:26;;;;;;;35.38;19.73;;;17.20;99.90;;;;;;5005666;28;20084;-88
2022/09/13 01:46:37;;;;;;;35.60;19.50;;;17.20;99.90;;;;;;5003590;28;20044;-88
2022/09/13 01:49:54;;;;;;;27.58;18.42;;;17.20;99.90;;;;;;5001936;28;20517;-88
2022/09/13 01:52:52;;;;;;;34.90;20.42;;;17.10;99.90;;;;;;5020409;28;20437;-87
2022/09/13 01:55:54;;;;;;;37.63;22.05;;;17.10;99.90;;;;;;5012707;28;20053;-88
2022/09/13 01:58:52;;;;;;;39.03;21.42;;;17.10;99.90;;;;;;5012919;28;20117;-89
2022/09/13 02:01:49;;;;;;;37.67;21.77;;;17.00;99.90;;;;;;5012527;28;20041;-88
2022/09/13 02:04:39;;;;;;;37.88;21.40;;;17.10;99.90;;;;;;5012859;28;20041;-88
2022/09/13 02:07:35;;;;;;;39.83;23.00;;;17.10;99.90;;;;;;5011486;28;20071;-89
2022/09/13 02:10:32;;;;;;;41.22;22.83;;;17.00;99.90;;;;;;5007064;28;20531;-88
2022/09/13 02:13:21;;;;;;;39.10;21.90;;;17.10;99.90;;;;;;5012018;28;20080;-89
2022/09/13 02:16:17;;;;;;;47.28;23.38;;;17.00;99.90;;;;;;5004586;28;20046;-88
2022/09/13 02:19:15;;;;;;;38.45;24.50;;;17.50;99.90;;;;;;5011186;28;20533;-87
2022/09/13 02:22:00;;;;;;;43.25;24.55;;;;;;;;;;5012376;28;20040;-88
2022/09/13 02:24:49;;;;;;;51.85;25.58;;;17.10;99.90;;;;;;5011563;28;20041;-88
2022/09/13 02:27:37;;;;;;;45.20;25.95;;;17.10;99.90;;;;;;5003716;28;20060;-88
2022/09/13 02:30:21;;;;;;;47.80;26.55;;;17.10;99.90;;;;;;5010428;28;20092;-88
2022/09/13 02:33:32;;;;;;;46.03;25.98;;;17.20;99.90;;;;;;5012524;28;20073;-90
2022/09/13 02:36:23;;;;;;;45.15;26.73;;;17.10;99.90;;;;;;5004273;28;20047;-88
2022/09/13 02:39:19;;;;;;;46.85;28.85;;;16.90;99.90;;;;;;5012381;28;20040;-88
2022/09/13 02:42:17;;;;;;;54.22;29.70;;;17.10;99.90;;;;;;5025123;28;20041;-87
2022/09/13 02:45:04;;;;;;;51.60;30.20;;;17.00;99.90;;;;;;5011108;28;20044;-89
2022/09/13 02:48:18;;;;;;;52.92;30.48;;;17.00;99.90;;;;;;5012193;28;20095;-87
2022/09/13 02:51:14;;;;;;;60.45;32.17;;;17.00;99.90;;;;;;5012162;28;20131;-88
2022/09/13 02:54:21;;;;;;;51.03;29.52;;;17.00;99.90;;;;;;5011886;28;20041;-89
2022/09/13 02:57:35;;;;;;;56.20;30.92;;;17.10;99.90;;;;;;5012003;28;20068;-89
2022/09/13 03:00:20;;;;;;;60.70;32.10;;;17.20;99.90;;;;;;4990356;28;20065;-89
2022/09/13 03:03:08;;;;;;;61.40;32.58;;;17.10;99.90;;;;;;5007082;28;20033;-87
2022/09/13 03:05:53;;;;;;;59.53;31.95;;;17.00;99.90;;;;;;5011138;28;20049;-89
2022/09/13 03:08:37;;;;;;;61.50;32.30;;;17.10;99.90;;;;;;5011595;28;20053;-88
2022/09/13 03:11:46;;;;;;;59.40;32.25;;;17.00;99.90;;;;;;5011145;28;20062;-87
2022/09/13 03:14:30;;;;;;;55.92;30.65;;;;;;;;;;5004594;28;20101;-88
2022/09/13 03:17:57;;;;;;;47.08;28.85;;;17.10;99.90;;;;;;5010892;28;20083;-89
2022/09/13 03:21:00;;;;;;;53.42;29.80;;;17.00;99.90;;;;;;5004382;28;20481;-88
2022/09/13 03:24:26;;;;;;;53.60;28.93;;;17.10;99.90;;;;;;5015576;28;20079;-90
2022/09/13 03:27:38;;;;;;;50.83;29.60;;;17.10;99.90;;;;;;5011272;28;20044;-87
2022/09/13 03:30:23;;;;;;;52.28;28.77;;;;;;;;;;4998894;28;20056;-89
2022/09/13 03:33:15;;;;;;;51.67;27.85;;;17.10;99.90;;;;;;5015440;28;20101;-89
2022/09/13 03:36:17;;;;;;;50.30;28.38;;;17.30;99.90;;;;;;5015389;28;20118;-89
2022/09/13 03:39:12;;;;;;;57.10;28.83;;;17.30;99.90;;;;;;5014899;28;20037;-88
2022/09/13 03:42:01;;;;;;;51.47;27.67;;;16.50;99.90;;;;;;5014531;28;20033;-89
2022/09/13 03:44:49;;;;;;;51.70;27.58;;;17.20;99.90;;;;;;5014797;28;20172;-89
2022/09/13 03:47:35;;;;;;;51.63;27.58;;;17.30;99.90;;;;;;5014600;28;20089;-89
2022/09/13 03:50:23;;;;;;;48.38;27.95;;;17.20;99.90;;;;;;5014237;28;20052;-88
2022/09/13 03:53:10;;;;;;;53.33;28.33;;;17.30;99.90;;;;;;5014868;28;20049;-88
2022/09/13 03:55:54;;;;;;;53.83;27.52;;;17.20;99.90;;;;;;5014976;28;20446;-88
2022/09/13 03:58:38;;;;;;;49.60;28.17;;;17.30;99.90;;;;;;5013448;28;20045;-89
2022/09/13 04:01:24;;;;;;;47.38;26.40;;;17.30;99.90;;;;;;5013855;28;20409;-88
2022/09/13 04:04:08;;;;;;;46.63;26.05;;;17.20;99.90;;;;;;5014685;28;20040;-89
2022/09/13 04:06:55;;;;;;;43.35;24.30;;;;;;;;;;5009462;28;20045;-89
2022/09/13 04:09:39;;;;;;;31.75;19.95;;;17.40;99.90;;;;;;5000215;28;20041;-89
2022/09/13 04:12:24;;;;;;;29.50;18.88;;;17.40;99.90;;;;;;5027433;28;20064;-89
2022/09/13 04:15:08;;;;;;;34.38;20.65;;;17.40;99.90;;;;;;5014627;28;20504;-89
2022/09/13 04:17:53;;;;;;;23.67;15.27;;;17.30;99.90;;;;;;5009791;28;20044;-89
2022/09/13 04:20:37;;;;;;;26.80;16.10;;;17.30;99.90;;;;;;5006935;28;20117;-89
2022/09/13 04:23:22;;;;;;;24.67;15.05;;;;;;;;;;5002318;28;20508;-89
2022/09/13 04:26:07;;;;;;;24.95;15.60;;;17.50;99.90;;;;;;5006997;28;20045;-89
2022/09/13 04:28:54;;;;;;;28.58;15.63;;;17.50;99.90;;;;;;5008708;28;20406;-88
2022/09/13 04:31:39;;;;;;;22.20;13.20;;;17.90;99.90;;;;;;5010504;28;20104;-89
2022/09/13 04:34:24;;;;;;;18.77;12.75;;;;;;;;;;5013206;28;20037;-89
2022/09/13 04:37:08;;;;;;;21.52;12.02;;;;;;;;;;5014048;28;20045;-90
2022/09/13 04:39:53;;;;;;;21.08;13.70;;;;;;;;;;5010810;28;20037;-90
2022/09/13 04:42:37;;;;;;;23.63;13.70;;;17.50;99.90;;;;;;5013180;28;20096;-91
2022/09/13 04:45:22;;;;;;;16.20;11.38;;;;;;;;;;5004921;28;20041;-90
2022/09/13 04:48:07;;;;;;;24.08;12.48;;;17.40;99.90;;;;;;5013796;28;20414;-89
2022/09/13 04:50:51;;;;;;;16.00;10.70;;;17.40;99.90;;;;;;5001585;28;20117;-90
2022/09/13 04:53:36;;;;;;;17.38;11.45;;;17.50;99.90;;;;;;5003561;28;20049;-90
2022/09/13 04:56:22;;;;;;;15.05;10.75;;;17.50;99.90;;;;;;4996880;28;20096;-89
2022/09/13 04:59:06;;;;;;;16.77;10.48;;;17.50;99.90;;;;;;4995171;28;20407;-89
2022/09/13 05:01:50;;;;;;;13.90;9.15;;;17.50;99.90;;;;;;5004483;28;20148;-90
2022/09/13 05:04:35;;;;;;;14.80;9.88;;;;;;;;;;5012541;28;20049;-88
2022/09/13 05:07:19;;;;;;;17.48;9.93;;;;;;;;;;4996192;28;20505;-89
2022/09/13 05:10:04;;;;;;;12.43;9.10;;;17.60;99.90;;;;;;5000031;28;20045;-89
2022/09/13 05:12:48;;;;;;;12.40;8.60;;;17.30;99.90;;;;;;4998461;28;20093;-90
2022/09/13 05:15:32;;;;;;;10.55;7.70;;;17.50;99.90;;;;;;5017365;28;20045;-89
2022/09/13 05:18:16;;;;;;;13.75;8.20;;;17.40;99.90;;;;;;5011918;28;20105;-89
2022/09/13 05:21:03;;;;;;;10.88;6.97;;;17.40;99.90;;;;;;5011000;28;20095;-90
2022/09/13 05:23:49;;;;;;;14.80;6.53;;;17.50;99.90;;;;;;4995555;28;20165;-89
2022/09/13 05:26:33;;;;;;;11.73;6.25;;;;;;;;;;5009236;28;20593;-89
2022/09/13 05:29:18;;;;;;;10.32;5.80;;;17.40;99.90;;;;;;5006902;28;20093;-89
2022/09/13 05:32:03;;;;;;;12.65;6.30;;;17.30;99.90;;;;;;4997161;28;20463;-90
2022/09/13 05:34:47;;;;;;;10.38;5.40;;;17.50;99.90;;;;;;5013713;28;20053;-90
2022/09/13 05:37:31;;;;;;;9.32;4.20;;;17.40;99.90;;;;;;4995329;28;20029;-90
2022/09/13 05:40:15;;;;;;;10.32;5.20;;;17.20;99.90;;;;;;4997365;28;20040;-89
2022/09/13 05:43:00;;;;;;;8.25;4.15;;;;;;;;;;5021235;28;20064;-88
2022/09/13 05:45:44;;;;;;;7.43;3.30;;;17.40;99.90;;;;;;5011894;28;20092;-89
2022/09/13 05:48:29;;;;;;;6.60;3.53;;;17.30;99.90;;;;;;5004111;28;20409;-89
2022/09/13 05:51:19;;;;;;;8.73;2.90;;;17.30;99.90;;;;;;5011941;28;20049;-89
2022/09/13 05:54:04;;;;;;;5.85;2.85;;;17.40;99.90;;;;;;5011944;28;20033;-86
2022/09/13 05:56:51;;;;;;;3.80;1.30;;;17.20;99.90;;;;;;5008675;28;20496;-86
2022/09/13 05:59:35;;;;;;;9.15;3.70;;;;;;;;;;4996643;28;20041;-86
2022/09/13 06:02:20;;;;;;;6.38;2.70;;;17.30;99.90;;;;;;5012580;28;20171;-86
2022/09/13 06:05:05;;;;;;;8.10;3.28;;;;;;;;;;5012101;28;20064;-87
2022/09/13 06:07:49;;;;;;;14.57;4.05;;;17.10;99.90;;;;;;5024898;28;20406;-86
2022/09/13 06:10:34;;;;;;;8.20;4.07;;;;;;;;;;5011481;28;20512;-86
2022/09/13 06:13:17;;;;;;;9.23;4.43;;;17.50;99.90;;;;;;5011210;28;20461;-85
2022/09/13 06:16:04;;;;;;;9.68;4.40;;;17.20;99.90;;;;;;5011858;28;20493;-85
2022/09/13 06:18:48;;;;;;;13.18;5.00;;;17.30;99.90;;;;;;5012362;28;20032;-85
2022/09/13 06:21:33;;;;;;;8.60;3.88;;;17.30;99.90;;;;;;5012963;28;20045;-85
2022/09/13 06:24:17;;;;;;;9.63;3.90;;;17.30;99.90;;;;;;5012684;28;20060;-85
2022/09/13 06:27:02;;;;;;;7.97;3.83;;;17.30;99.90;;;;;;5011274;28;20548;-85
2022/09/13 06:29:47;;;;;;;9.68;3.33;;;;;;;;;;5012805;28;20048;-85
2022/09/13 06:32:31;;;;;;;7.60;3.50;;;17.20;99.90;;;;;;5011921;28;20037;-86
2022/09/13 06:35:15;;;;;;;6.57;2.80;;;17.20;99.90;;;;;;5005521;28;20110;-85
2022/09/13 06:38:00;;;;;;;10.00;3.53;;;17.30;99.90;;;;;;5020884;28;20048;-85
2022/09/13 06:40:43;;;;;;;8.38;3.83;;;17.20;99.90;;;;;;5012791;28;20049;-85
2022/09/13 06:43:28;;;;;;;6.30;3.33;;;17.30;99.90;;;;;;5025417;28;20513;-84
2022/09/13 06:46:15;;;;;;;10.02;3.03;;;17.50;99.90;;;;;;5024875;28;20087;-86
2022/09/13 06:49:02;;;;;;;8.50;2.92;;;17.40;99.90;;;;;;5012175;28;20109;-85
2022/09/13 06:51:46;;;;;;;5.88;3.03;;;17.40;99.90;;;;;;5012493;28;20041;-87
2022/09/13 06:54:31;;;;;;;12.63;3.53;;;17.50;99.90;;;;;;5015637;28;20073;-86
2022/09/13 06:57:15;;;;;;;8.00;3.28;;;17.60;99.90;;;;;;5028839;28;20068;-85
2022/09/13 07:00:00;;;;;;;9.38;2.67;;;17.50;99.90;;;;;;5028919;28;20504;-85
2022/09/13 07:02:50;;;;;;;12.13;3.13;;;17.60;99.90;;;;;;5016342;28;20115;-86
2022/09/13 07:05:34;;;;;;;7.75;2.88;;;;;;;;;;5016004;28;20556;-86
2022/09/13 07:08:19;;;;;;;7.70;2.97;;;;;;;;;;5015828;28;20091;-86
2022/09/13 07:11:03;;;;;;;6.15;2.80;;;17.70;99.90;;;;;;5015633;28;20089;-86
2022/09/13 07:13:55;;;;;;;11.23;3.60;;;17.70;99.90;;;;;;5016155;28;20425;-86
2022/09/13 07:16:39;;;;;;;9.82;3.10;;;17.80;99.90;;;;;;5005596;28;20045;-86
2022/09/13 07:19:26;;;;;;;7.25;2.75;;;18.00;99.90;;;;;;5006904;28;20065;-86
2022/09/13 07:22:10;;;;;;;6.55;2.70;;;18.20;99.90;;;;;;5004542;28;20040;-86
2022/09/13 07:24:56;;;;;;;8.40;3.03;;;18.30;99.90;;;;;;5012245;28;20440;-86
2022/09/13 07:27:40;;;;;;;7.07;2.80;;;18.40;99.90;;;;;;5028825;28;20111;-86
2022/09/13 07:30:25;;;;;;;10.32;2.90;;;18.30;99.90;;;;;;5014862;28;20084;-86
2022/09/13 07:33:09;;;;;;;10.30;2.72;;;18.40;99.90;;;;;;5015196;28;20064;-86
2022/09/13 07:35:58;;;;;;;8.20;2.28;;;18.50;99.90;;;;;;5015719;28;20104;-86
2022/09/13 07:38:47;;;;;;;7.53;2.60;;;;;;;;;;5027908;28;20430;-86
2022/09/13 07:41:32;;;;;;;9.98;2.47;;;19.40;99.90;;;;;;5009186;28;20509;-86
2022/09/13 07:44:17;;;;;;;8.57;1.80;;;20.10;99.90;;;;;;5014926;28;20544;-86
2022/09/13 07:47:02;;;;;;;8.40;1.88;;;;;;;;;;5015000;28;20581;-85
2022/09/13 07:49:46;;;;;;;7.93;1.80;;;20.10;99.90;;;;;;5008724;28;20454;-86
2022/09/13 07:52:30;;;;;;;6.30;1.48;;;20.10;99.90;;;;;;5012925;28;20072;-88
2022/09/13 07:55:14;;;;;;;3.47;1.25;;;;;;;;;;5015001;28;20124;-87
2022/09/13 07:57:59;;;;;;;4.57;1.27;;;;;;;;;;5015442;28;20041;-87
2022/09/13 08:00:43;;;;;;;6.07;1.20;;;19.20;99.90;;;;;;5015245;28;20041;-88
2022/09/13 08:03:29;;;;;;;7.25;1.45;;;20.40;99.90;;;;;;5027792;28;20406;-87
2022/09/13 08:06:13;;;;;;;5.75;1.27;;;20.20;99.90;;;;;;5013570;28;20060;-88
2022/09/13 08:08:58;;;;;;;7.55;1.20;;;;;;;;;;5028311;28;20115;-87
2022/09/13 08:11:51;;;;;;;10.65;1.52;;;20.40;99.90;;;;;;5008380;28;20410;-88
2022/09/13 08:14:36;;;;;;;6.07;1.20;;;;;;;;;;5011656;28;20112;-89
2022/09/13 08:17:21;;;;;;;8.10;1.50;;;;;;;;;;5014442;28;20069;-88
2022/09/13 08:20:05;;;;;;;5.60;1.10;;;20.80;99.90;;;;;;5013814;28;20056;-89
2022/09/13 08:22:50;;;;;;;3.95;1.05;;;21.00;99.90;;;;;;5013948;28;20137;-90
2022/09/13 08:25:35;;;;;;;5.95;1.10;;;20.80;99.90;;;;;;4999940;28;20144;-89
2022/09/13 08:28:21;;;;;;;5.00;1.25;;;21.00;99.90;;;;;;5014572;28;20104;-90
2022/09/13 08:31:07;;;;;;;2.92;1.05;;;21.00;99.90;;;;;;5014133;28;20045;-90
2022/09/13 08:33:52;;;;;;;3.38;1.10;;;;;;;;;;5028085;28;20033;-90
2022/09/13 08:36:37;;;;;;;4.85;1.13;;;;;;;;;;5015264;28;20414;-91
2022/09/13 08:39:21;;;;;;;8.43;1.17;;;;;;;;;;5000004;28;20100;-92
2022/09/13 08:42:31;;;;;;;3.83;1.30;;;23.00;99.90;;;;;;5015142;28;20061;-91
2022/09/13 08:45:15;;;;;;;5.82;1.00;;;23.50;99.90;;;;;;5013608;28;20052;-93
2022/09/13 08:48:12;;;;;;;3.22;0.95;;;24.00;99.90;;;;;;5014681;28;20053;-93
2022/09/13 08:51:03;;;;;;;4.25;1.60;;;24.70;99.90;;;;;;5014697;28;20528;-94
2022/09/13 08:53:49;;;;;;;6.45;1.00;;;23.50;99.90;;;;;;5017242;28;20095;-95
2022/09/13 08:56:52;;;;;;;6.55;0.98;;;22.50;99.90;;;;;;5004087;28;20076;-92
2022/09/13 08:59:45;;;;;;;5.13;0.90;;;22.70;99.90;;;;;;5013895;28;20056;-93
2022/09/13 09:02:29;;;;;;;3.35;0.82;;;;;;;;;;5013378;28;20477;-92
2022/09/13 09:05:27;;;;;;;3.70;1.00;;;21.20;99.90;;;;;;5013624;28;20092;-92
2022/09/13 09:08:26;;;;;;;6.05;1.30;;;21.60;99.90;;;;;;5014624;28;20068;-94
2022/09/13 09:11:28;;;;;;;7.88;0.98;;;21.50;99.90;;;;;;5016408;28;20037;-91
2022/09/13 09:14:32;;;;;;;4.45;1.25;;;22.20;99.90;;;;;;5020079;28;20410;-91
2022/09/13 09:17:41;;;;;;;9.73;1.50;;;22.20;99.90;;;;;;5012761;28;20426;-92
2022/09/13 09:20:38;;;;;;;8.98;1.30;;;22.60;99.90;;;;;;5013598;28;20036;-91
2022/09/13 09:23:31;;;;;;;5.38;1.10;;;22.30;99.90;;;;;;5013036;28;20032;-91
2022/09/13 09:26:28;;;;;;;3.55;1.10;;;21.40;99.90;;;;;;5013068;28;20041;-90
2022/09/13 09:29:25;;;;;;;4.93;1.95;;;21.30;99.90;;;;;;4999439;28;20080;-94
2022/09/13 09:32:17;;;;;;;3.40;0.90;;;20.90;99.90;;;;;;5002052;28;20118;-91
2022/09/13 09:35:28;;;;;;;5.00;1.30;;;21.00;99.90;;;;;;5017188;28;20492;-90
2022/09/13 09:38:22;;;;;;;3.58;1.55;;;20.70;99.90;;;;;;5031654;28;20083;-89
2022/09/13 09:41:11;;;;;;;4.50;1.05;;;21.20;99.90;;;;;;5007090;28;20033;-92
2022/09/13 09:44:06;;;;;;;6.07;1.05;;;21.70;99.90;;;;;;4999865;28;20501;-92
2022/09/13 09:47:10;;;;;;;3.63;1.35;;;22.80;99.90;;;;;;5014083;28;20108;-89
2022/09/13 09:50:09;;;;;;;6.85;1.10;;;23.10;99.90;;;;;;5026682;28;20096;-90
2022/09/13 09:53:05;;;;;;;5.13;1.20;;;23.20;99.90;;;;;;5026530;28;20033;-90
2022/09/13 09:55:52;;;;;;;3.20;1.00;;;23.60;99.90;;;;;;5013752;28;20117;-89
2022/09/13 09:58:45;;;;;;;5.90;1.45;;;22.70;99.90;;;;;;5007749;28;20096;-89
2022/09/13 10:01:35;;;;;;;4.30;0.90;;;23.40;99.90;;;;;;5024235;28;20072;-90
2022/09/13 10:04:21;;;;;;;6.45;1.10;;;22.60;99.90;;;;;;4999221;28;20123;-89
2022/09/13 10:07:08;;;;;;;7.85;1.20;;;22.50;99.90;;;;;;5011844;28;20406;-90
2022/09/13 10:10:07;;;;;;;4.15;0.90;;;22.20;99.90;;;;;;5003800;28;20041;-89
2022/09/13 10:12:55;;;;;;;3.17;0.77;;;22.60;99.90;;;;;;5019952;28;20509;-88
2022/09/13 10:15:56;;;;;;;4.20;0.90;;;22.80;99.90;;;;;;5029618;28;20044;-89
2022/09/13 10:18:41;;;;;;;2.53;0.90;;;;;;;;;;5013004;28;20501;-89
2022/09/13 10:21:28;;;;;;;4.78;1.17;;;23.30;99.90;;;;;;5013064;28;20045;-88
2022/09/13 10:24:20;;;;;;;5.93;1.20;;;22.60;99.90;;;;;;4999810;28;20181;-88
2022/09/13 10:27:17;;;;;;;5.38;1.10;;;22.40;99.90;;;;;;5013291;28;20398;-89
2022/09/13 10:30:05;;;;;;;5.82;1.10;;;22.30;99.90;;;;;;5029222;28;20084;-89
2022/09/13 10:32:56;;;;;;;5.78;1.17;;;22.40;99.90;;;;;;5019006;28;20040;-88
2022/09/13 10:35:47;;;;;;;4.22;1.00;;;22.60;99.90;;;;;;5007310;28;20044;-89
2022/09/13 10:38:36;;;;;;;9.00;1.38;;;22.80;99.90;;;;;;5012608;28;20049;-87
2022/09/13 10:41:24;;;;;;;5.30;1.05;;;22.60;97.80;;;;;;5012136;28;20032;-91
2022/09/13 10:44:41;;;;;;;4.97;1.02;;;22.60;97.40;;;;;;5013188;28;20064;-89
2022/09/13 10:47:47;;;;;;;8.90;1.45;;;22.60;97.30;;;;;;5012039;28;20080;-88
2022/09/13 10:50:32;;;;;;;5.60;1.10;;;;;;;;;;4993537;28;20112;-92
2022/09/13 10:53:29;;;;;;;5.18;1.17;;;22.90;99.70;;;;;;5023464;28;20056;-87
2022/09/13 10:56:25;;;;;;;5.70;1.23;;;22.90;99.40;;;;;;5026519;28;20087;-88
2022/09/13 10:59:23;;;;;;;4.13;1.20;;;22.40;99.90;;;;;;5001975;28;20453;-89
2022/09/13 11:02:44;;;;;;;4.57;0.80;;;23.20;96.70;;;;;;5013099;28;20045;-89
2022/09/13 11:05:57;;;;;;;4.72;1.13;;;23.30;98.60;;;;;;5005942;28;20041;-89
2022/09/13 11:08:54;;;;;;;3.78;1.08;;;23.20;95.90;;;;;;5030133;28;20532;-88
2022/09/13 11:11:48;;;;;;;5.20;1.30;;;22.80;99.60;;;;;;5011721;28;20473;-88
2022/09/13 11:15:23;;;;;;;8.38;1.60;;;22.70;97.00;;;;;;5013253;28;20389;-88
2022/09/13 11:18:23;;;;;;;5.00;0.93;;;22.40;99.90;;;;;;4999381;28;20452;-89
2022/09/13 11:21:07;;;;;;;5.97;1.15;;;;;;;;;;5002760;28;20036;-88
2022/09/13 11:24:03;;;;;;;5.68;0.98;;;22.50;99.20;;;;;;5029632;28;20396;-88
2022/09/13 11:26:48;;;;;;;5.28;1.45;;;;;;;;;;5016076;28;20099;-87
2022/09/13 11:29:50;;;;;;;4.25;1.00;;;22.70;96.60;;;;;;5012049;28;20493;-87
2022/09/13 11:32:40;;;;;;;5.43;1.30;;;22.90;99.20;;;;;;4998224;28;20443;-88
2022/09/13 11:35:43;;;;;;;5.70;1.50;;;23.20;98.60;;;;;;5025338;28;20040;-88
2022/09/13 11:38:37;;;;;;;7.93;1.20;;;23.40;99.40;;;;;;5011460;28;20044;-88
2022/09/13 11:41:34;;;;;;;4.63;1.15;;;23.90;98.30;;;;;;5015905;28;20260;-88
2022/09/13 11:44:43;;;;;;;6.05;1.30;;;23.50;96.60;;;;;;5030397;28;20045;-88
2022/09/13 11:47:49;;;;;;;3.92;0.95;;;23.30;96.30;;;;;;5009719;28;20081;-89
2022/09/13 11:50:38;;;;;;;4.15;1.08;;;;;;;;;;5009052;28;20058;-90
2022/09/13 11:53:37;;;;;;;5.10;1.30;;;22.70;97.00;;;;;;5010719;28;20476;-87
2022/09/13 11:56:28;;;;;;;8.65;1.30;;;22.70;97.70;;;;;;5017331;28;20402;-88
2022/09/13 11:59:28;;;;;;;3.38;1.05;;;22.50;97.40;;;;;;5015784;28;20088;-88
2022/09/13 12:02:28;;;;;;;5.05;1.08;;;22.60;93.30;;;;;;5036125;28;20037;-87
2022/09/13 12:05:21;;;;;;;4.72;1.10;;;22.90;97.40;;;;;;5035076;28;20040;-87
2022/09/13 12:08:06;;;;;;;4.57;1.08;;;;;;;;;;5020571;28;20121;-90
2022/09/13 12:10:53;;;;;;;3.83;0.90;;;22.90;94.90;;;;;;5003484;28;20092;-88
2022/09/13 12:13:49;;;;;;;5.40;0.95;;;22.90;94.70;;;;;;5011006;28;20241;-88
2022/09/13 12:16:35;;;;;;;4.55;1.10;;;23.10;92.40;;;;;;5029190;28;20037;-89
2022/09/13 12:19:43;;;;;;;4.50;1.20;;;23.30;95.00;;;;;;5014089;28;20041;-88
2022/09/13 12:22:32;;;;;;;5.85;1.30;;;23.00;92.30;;;;;;5015206;28;20505;-89
2022/09/13 12:25:23;;;;;;;6.00;1.40;;;23.20;95.70;;;;;;5028707;28;20080;-88
2022/09/13 12:28:21;;;;;;;3.67;1.17;;;22.90;92.90;;;;;;5013561;28;20044;-90
2022/09/13 12:31:11;;;;;;;6.45;1.30;;;22.70;92.80;;;;;;5014577;28;20091;-88
2022/09/13 12:33:56;;;;;;;3.55;1.08;;;;;;;;;;5013450;28;20604;-88
2022/09/13 12:36:46;;;;;;;6.53;1.65;;;22.60;94.20;;;;;;5014732;28;20161;-88
2022/09/13 12:39:59;;;;;;;4.65;1.05;;;22.70;94.80;;;;;;5026149;28;20040;-88
2022/09/13 12:43:09;;;;;;;6.18;1.08;;;22.60;94.60;;;;;;5014394;28;20092;-87
2022/09/13 12:46:15;;;;;;;5.25;1.48;;;22.70;92.20;;;;;;5014077;28;20485;-88
2022/09/13 12:49:00;;;;;;;4.32;1.00;;;;;;;;;;5014009;28;20045;-89
2022/09/13 12:52:20;;;;;;;5.10;0.93;;;22.80;94.90;;;;;;5014228;28;20072;-89
2022/09/13 12:55:23;;;;;;;3.78;1.02;;;22.90;93.70;;;;;;5013399;28;20045;-88
2022/09/13 12:58:33;;;;;;;2.53;0.85;;;22.70;94.40;;;;;;5000932;28;20068;-89
2022/09/13 13:01:21;;;;;;;3.63;1.02;;;22.70;91.90;;;;;;5012109;28;20040;-89
2022/09/13 13:04:19;;;;;;;6.65;1.27;;;22.80;94.70;;;;;;5027634;28;20132;-88
2022/09/13 13:07:07;;;;;;;3.90;1.00;;;22.90;93.00;;;;;;5004404;28;20083;-88
2022/09/13 13:09:54;;;;;;;5.32;1.20;;;23.00;92.80;;;;;;5014093;28;20459;-88
2022/09/13 13:12:39;;;;;;;5.32;1.42;;;25.30;92.80;;;;;;5013248;28;20056;-87
2022/09/13 13:15:24;;;;;;;9.27;1.50;;;;;;;;;;5024109;28;20066;-88
2022/09/13 13:18:35;;;;;;;6.90;1.30;;;23.30;91.20;;;;;;5012565;28;20505;-89
2022/09/13 13:21:38;;;;;;;7.20;1.20;;;23.20;94.80;;;;;;5013852;28;20389;-92
2022/09/13 13:24:23;;;;;;;5.78;1.05;;;;;;;;;;5012826;28;20088;-89
2022/09/13 13:27:35;;;;;;;6.00;1.33;;;23.10;93.20;;;;;;5012360;28;20516;-89
2022/09/13 13:30:40;;;;;;;5.78;1.33;;;23.30;94.10;;;;;;5012273;28;20041;-89
2022/09/13 13:33:27;;;;;;;8.77;1.40;;;23.30;91.50;;;;;;5025816;28;20044;-91
2022/09/13 13:36:46;;;;;;;5.30;1.13;;;23.20;94.50;;;;;;5000474;28;20072;-89
2022/09/13 13:39:33;;;;;;;6.10;1.38;;;23.50;91.80;;;;;;5012230;28;20127;-90
2022/09/13 13:42:28;;;;;;;5.82;1.10;;;24.10;94.10;;;;;;5013063;28;20138;-90
2022/09/13 13:45:23;;;;;;;4.13;1.55;;;23.70;92.00;;;;;;5012153;28;20100;-89
2022/09/13 13:48:12;;;;;;;7.47;1.50;;;24.00;93.50;;;;;;5012077;28;20044;-90
2022/09/13 13:51:17;;;;;;;4.93;1.20;;;23.90;93.60;;;;;;5013307;28;20091;-90
2022/09/13 13:54:30;;;;;;;5.40;1.25;;;24.50;90.90;;;;;;5012084;28;20064;-92
2022/09/13 13:57:40;;;;;;;5.55;1.20;;;23.30;93.60;;;;;;5013012;28;20049;-90
2022/09/13 14:00:33;;;;;;;8.07;1.45;;;22.80;93.20;;;;;;5013015;28;20084;-90
2022/09/13 14:03:50;;;;;;;7.25;1.42;;;23.00;93.90;;;;;;5012178;28;20048;-90
2022/09/13 14:07:15;;;;;;;6.70;1.20;;;22.80;94.90;;;;;;5019523;28;20060;-87
2022/09/13 14:10:00;;;;;;;7.63;1.42;;;;;;;;;;5005119;28;20044;-87
2022/09/13 14:13:25;;;;;;;5.72;1.30;;;22.80;95.20;;;;;;5018693;28;20056;-87
2022/09/13 14:16:50;;;;;;;5.22;1.67;;;22.60;95.70;;;;;;5026845;28;20546;-87
2022/09/13 14:19:48;;;;;;;9.50;1.38;;;22.70;92.60;;;;;;5015633;28;20035;-89
2022/09/13 14:22:33;;;;;;;5.45;1.40;;;;;;;;;;5001440;28;20559;-90
2022/09/13 14:25:17;;;;;;;5.80;1.48;;;;;;;;;;5011374;28;20044;-91
2022/09/13 14:28:02;;;;;;;5.70;1.15;;;;;;;;;;5011981;28;20045;-88
2022/09/13 14:30:47;;;;;;;4.35;1.30;;;;;;;;;;4994268;28;20069;-87
2022/09/13 14:33:33;;;;;;;6.57;1.40;;;22.80;91.90;;;;;;5028722;28;20080;-87
2022/09/13 14:36:21;;;;;;;4.03;1.30;;;22.70;91.40;;;;;;5018285;28;20080;-88
2022/09/13 14:39:08;;;;;;;6.68;1.35;;;22.40;91.30;;;;;;5025571;28;20469;-88
2022/09/13 14:42:13;;;;;;;8.95;1.77;;;21.80;95.00;;;;;;5019716;28;20080;-90
2022/09/13 14:44:58;;;;;;;6.40;1.27;;;;;;;;;;5014249;28;20037;-90
2022/09/13 14:48:01;;;;;;;4.10;1.00;;;22.10;92.20;;;;;;5006114;28;20065;-91
2022/09/13 14:50:54;;;;;;;7.63;1.48;;;21.60;96.10;;;;;;5003059;28;20092;-89
2022/09/13 14:53:39;;;;;;;;;;;21.60;92.40;;;;;;5018740;28;20080;-89
2022/09/13 14:56:52;;;;;;;7.85;1.33;;;21.30;96.20;;;;;;5017493;28;19917;-91
2022/09/13 14:59:47;;;;;;;5.53;1.07;;;;;;;;;;5012769;28;20083;-90
2022/09/13 15:02:36;;;;;;;9.73;1.17;;;;;;;;;;5001597;28;20041;-91
2022/09/13 15:05:22;;;;;;;6.07;1.08;;;;;;;;;;5012390;28;20045;-90
2022/09/13 15:08:26;;;;;;;10.88;1.95;;;;;;;;;;5012670;28;20056;-90
2022/09/13 15:11:28;;;;;;;8.23;1.77;;;;;;;;;;5003054;28;20045;-89